createdAt,value
2023-07-24T00:00:04.332Z,58.30
2023-07-24T00:02:33.047Z,58.40
2023-07-24T00:05:02.603Z,58.40
2023-07-24T00:07:30.754Z,58.60
2023-07-24T00:09:58.980Z,58.60
2023-07-24T00:12:27.318Z,58.70
2023-07-24T00:14:56.148Z,58.70
2023-07-24T00:17:24.564Z,58.80
2023-07-24T00:19:52.614Z,58.70
2023-07-24T00:22:22.532Z,58.70
2023-07-24T00:24:50.867Z,58.90
2023-07-24T00:27:19.366Z,58.80
2023-07-24T00:29:47.710Z,58.90
2023-07-24T00:32:17.567Z,58.90
2023-07-24T00:34:45.604Z,59.00
2023-07-24T00:37:13.774Z,59.00
2023-07-24T00:39:43.447Z,58.90
2023-07-24T00:42:11.634Z,59.00
2023-07-24T00:44:39.725Z,59.00
2023-07-24T00:47:08.248Z,58.90
2023-07-24T00:49:36.732Z,58.90
2023-07-24T00:52:05.619Z,59.00
2023-07-24T00:54:35.494Z,59.20
2023-07-24T00:57:07.045Z,59.30
2023-07-24T00:59:35.523Z,59.40
2023-07-24T01:02:03.934Z,59.20
2023-07-24T01:04:32.372Z,59.20
2023-07-24T01:07:00.674Z,59.20
2023-07-24T01:09:28.911Z,59.20
2023-07-24T01:12:01.283Z,59.10
2023-07-24T01:14:38.553Z,59.30
2023-07-24T01:17:10.727Z,59.50
2023-07-24T01:19:43.322Z,59.20
2023-07-24T01:22:18.031Z,59.20
2023-07-24T01:25:02.411Z,59.30
2023-07-24T01:27:32.680Z,59.60
2023-07-24T01:30:00.951Z,59.20
2023-07-24T01:32:29.483Z,59.20
2023-07-24T01:34:57.859Z,59.30
2023-07-24T01:37:28.789Z,59.40
2023-07-24T01:39:58.930Z,59.70
2023-07-24T01:42:28.234Z,59.70
2023-07-24T01:44:58.216Z,59.80
2023-07-24T01:47:26.884Z,60.10
2023-07-24T01:49:55.213Z,59.90
2023-07-24T01:52:23.477Z,60.10
2023-07-24T01:54:51.636Z,60.00
2023-07-24T01:57:19.910Z,60.10
2023-07-24T01:59:50.245Z,60.10
2023-07-24T02:02:20.338Z,60.20
2023-07-24T02:04:49.044Z,60.30
2023-07-24T02:07:18.159Z,60.20
2023-07-24T02:09:46.709Z,60.40
2023-07-24T02:12:14.871Z,60.40
2023-07-24T02:14:43.079Z,60.40
2023-07-24T02:17:12.911Z,60.50
2023-07-24T02:19:42.730Z,60.60
2023-07-24T02:22:11.284Z,60.80
2023-07-24T02:24:39.816Z,60.60
2023-07-24T02:27:08.237Z,60.60
2023-07-24T02:29:37.485Z,60.60
2023-07-24T02:32:06.020Z,60.80
2023-07-24T02:34:34.137Z,60.60
2023-07-24T02:37:04.452Z,60.70
2023-07-24T02:39:32.526Z,60.90
2023-07-24T02:42:00.725Z,60.90
2023-07-24T02:44:28.702Z,61.00
2023-07-24T02:46:57.262Z,61.00
2023-07-24T02:49:25.886Z,61.10
2023-07-24T02:51:54.181Z,61.20
2023-07-24T02:54:23.977Z,61.40
2023-07-24T02:56:52.402Z,61.60
2023-07-24T02:59:20.752Z,61.30
2023-07-24T03:01:49.174Z,61.40
2023-07-24T03:04:17.762Z,61.50
2023-07-24T03:06:45.999Z,61.50
2023-07-24T03:09:14.095Z,61.50
2023-07-24T03:11:44.066Z,61.80
2023-07-24T03:14:12.376Z,61.80
2023-07-24T03:16:40.837Z,61.70
2023-07-24T03:19:09.000Z,61.80
2023-07-24T03:21:37.396Z,61.80
2023-07-24T03:24:06.573Z,61.90
2023-07-24T03:26:34.780Z,62.00
2023-07-24T03:29:04.661Z,61.90
2023-07-24T03:31:32.982Z,62.00
2023-07-24T03:34:01.746Z,61.70
2023-07-24T03:36:30.348Z,61.70
2023-07-24T03:38:58.771Z,61.70
2023-07-24T03:41:27.674Z,61.70
2023-07-24T03:43:56.900Z,61.70
2023-07-24T03:46:27.584Z,61.60
2023-07-24T03:48:56.261Z,61.90
2023-07-24T03:51:24.574Z,61.80
2023-07-24T03:53:55.077Z,62.00
2023-07-24T03:56:23.436Z,62.10
2023-07-24T03:58:51.651Z,62.10
2023-07-24T04:01:19.896Z,62.20
2023-07-24T04:03:49.845Z,61.90
2023-07-24T04:06:18.153Z,62.00
2023-07-24T04:08:46.504Z,61.80
2023-07-24T04:11:14.721Z,61.80
2023-07-24T04:13:42.964Z,61.80
2023-07-24T04:16:11.190Z,62.00
2023-07-24T04:18:39.432Z,62.20
2023-07-24T04:21:10.461Z,62.50
2023-07-24T04:23:38.935Z,62.90
2023-07-24T04:26:07.274Z,63.00
2023-07-24T04:28:35.518Z,63.20
2023-07-24T04:31:03.781Z,63.30
2023-07-24T04:33:32.971Z,63.00
2023-07-24T04:36:01.572Z,62.90
2023-07-24T04:38:31.163Z,62.80
2023-07-24T04:40:59.479Z,62.90
2023-07-24T04:43:28.190Z,62.80
2023-07-24T04:45:56.639Z,63.10
2023-07-24T04:48:24.984Z,63.40
2023-07-24T04:50:56.497Z,63.60
2023-07-24T04:53:24.974Z,64.00
2023-07-24T04:55:54.602Z,63.90
2023-07-24T04:58:22.658Z,64.20
2023-07-24T05:00:50.816Z,64.00
2023-07-24T05:03:19.506Z,63.90
2023-07-24T05:05:50.988Z,63.90
2023-07-24T05:08:19.041Z,63.90
2023-07-24T05:10:47.257Z,63.50
2023-07-24T05:13:16.864Z,63.20
2023-07-24T05:15:44.990Z,63.10
2023-07-24T05:18:13.150Z,62.90
2023-07-24T05:20:44.557Z,62.90
2023-07-24T05:23:13.161Z,63.00
2023-07-24T05:25:41.831Z,63.10
2023-07-24T05:28:10.112Z,63.40
2023-07-24T05:30:39.939Z,63.70
2023-07-24T05:33:08.075Z,64.00
2023-07-24T05:35:36.182Z,64.10
2023-07-24T05:38:04.562Z,63.80
2023-07-24T05:40:32.828Z,63.60
2023-07-24T05:43:01.079Z,63.50
2023-07-24T05:45:29.410Z,63.30
2023-07-24T05:47:59.105Z,62.80
2023-07-24T05:50:27.366Z,62.30
2023-07-24T05:52:55.607Z,62.30
2023-07-24T05:55:24.091Z,62.10
2023-07-24T05:57:52.338Z,61.90
2023-07-24T06:00:20.730Z,62.00
2023-07-24T06:02:48.942Z,61.90
2023-07-24T06:05:19.147Z,61.40
2023-07-24T06:07:47.171Z,61.10
2023-07-24T06:10:15.487Z,61.00
2023-07-24T06:12:43.598Z,59.60
2023-07-24T06:15:12.297Z,59.60
2023-07-24T06:17:40.544Z,59.60
2023-07-24T06:20:10.185Z,59.60
2023-07-24T06:22:39.870Z,59.20
2023-07-24T06:25:08.693Z,59.00
2023-07-24T06:27:37.187Z,58.80
2023-07-24T06:30:14.972Z,59.10
2023-07-24T06:32:44.676Z,59.20
2023-07-24T06:35:12.824Z,59.10
2023-07-24T06:37:42.623Z,58.80
2023-07-24T06:40:11.328Z,58.20
2023-07-24T06:42:39.995Z,58.30
2023-07-24T06:45:09.480Z,58.30
2023-07-24T06:47:38.636Z,58.10
2023-07-24T06:50:08.798Z,58.00
2023-07-24T06:52:37.083Z,57.20
2023-07-24T06:55:08.464Z,57.60
2023-07-24T06:57:36.544Z,57.50
2023-07-24T07:00:05.395Z,57.70
2023-07-24T07:02:33.782Z,57.90
2023-07-24T07:05:02.332Z,57.90
2023-07-24T07:07:30.532Z,57.80
2023-07-24T07:09:59.003Z,58.10
2023-07-24T07:12:28.695Z,58.30
2023-07-24T07:14:57.189Z,58.40
2023-07-24T07:17:25.372Z,57.80
2023-07-24T07:19:53.801Z,57.90
2023-07-24T07:22:21.861Z,57.70
2023-07-24T07:24:50.166Z,57.50
2023-07-24T07:27:19.094Z,57.30
2023-07-24T07:29:49.070Z,56.90
2023-07-24T07:32:17.836Z,56.60
2023-07-24T07:34:46.309Z,56.50
2023-07-24T07:37:14.503Z,56.10
2023-07-24T07:39:42.653Z,56.10
2023-07-24T07:42:17.737Z,56.00
2023-07-24T07:44:48.290Z,55.70
2023-07-24T07:47:16.827Z,56.00
2023-07-24T07:49:45.075Z,56.10
2023-07-24T07:52:13.910Z,55.60
2023-07-24T07:54:42.313Z,55.50
2023-07-24T07:57:10.540Z,55.40
2023-07-24T07:59:38.644Z,55.30
2023-07-24T08:02:08.978Z,54.70
2023-07-24T08:04:38.439Z,54.00
2023-07-24T08:07:07.125Z,54.30
2023-07-24T08:09:35.314Z,53.50
2023-07-24T08:12:04.809Z,53.10
2023-07-24T08:14:34.746Z,52.80
2023-07-24T08:17:03.342Z,52.90
2023-07-24T08:19:32.998Z,52.70
2023-07-24T08:22:01.230Z,52.50
2023-07-24T08:24:29.329Z,52.80
2023-07-24T08:26:57.589Z,52.90
2023-07-24T08:29:25.910Z,53.00
2023-07-24T08:31:54.559Z,53.10
2023-07-24T08:34:22.882Z,53.40
2023-07-24T08:36:52.553Z,52.60
2023-07-24T08:39:20.838Z,52.90
2023-07-24T08:41:49.225Z,53.10
2023-07-24T08:44:18.388Z,53.20
2023-07-24T08:46:50.919Z,53.20
2023-07-24T08:49:19.569Z,53.10
2023-07-24T08:51:49.074Z,53.10
2023-07-24T08:54:20.730Z,53.20
2023-07-24T08:56:51.554Z,52.90
2023-07-24T08:59:19.985Z,51.90
2023-07-24T09:01:48.270Z,51.40
2023-07-24T09:04:16.632Z,51.30
2023-07-24T09:06:45.264Z,51.30
2023-07-24T09:09:18.160Z,51.00
2023-07-24T09:11:51.589Z,51.00
2023-07-24T09:14:24.304Z,51.70
2023-07-24T09:17:03.798Z,52.30
2023-07-24T09:19:32.468Z,52.80
2023-07-24T09:22:11.652Z,53.80
2023-07-24T09:24:52.259Z,52.40
2023-07-24T09:27:21.946Z,50.60
2023-07-24T09:29:50.147Z,51.50
2023-07-24T09:32:23.158Z,50.30
2023-07-24T09:34:53.216Z,49.80
2023-07-24T09:37:28.823Z,50.30
2023-07-24T09:40:00.025Z,49.50
2023-07-24T09:42:32.996Z,50.20
2023-07-24T09:45:02.625Z,47.90
2023-07-24T09:47:52.500Z,47.60
2023-07-24T09:50:19.646Z,46.50
2023-07-24T09:52:50.069Z,45.60
2023-07-24T09:55:24.235Z,44.80
2023-07-24T09:57:55.710Z,44.70
2023-07-24T10:00:25.265Z,45.40
2023-07-24T10:02:53.837Z,46.30
2023-07-24T10:05:22.156Z,47.90
2023-07-24T10:07:51.887Z,47.60
2023-07-24T10:10:22.549Z,49.00
2023-07-24T10:12:51.753Z,47.40
2023-07-24T10:15:21.168Z,45.20
2023-07-24T10:17:49.524Z,44.90
2023-07-24T10:20:19.247Z,45.00
2023-07-24T10:22:47.817Z,45.10
2023-07-24T10:25:16.327Z,43.20
2023-07-24T10:27:47.769Z,43.60
2023-07-24T10:30:32.184Z,42.50
2023-07-24T10:33:10.467Z,40.60
2023-07-24T10:35:43.750Z,38.80
2023-07-24T10:38:12.952Z,37.40
2023-07-24T10:40:42.651Z,39.10
2023-07-24T10:43:13.634Z,38.70
2023-07-24T10:45:49.384Z,38.40
2023-07-24T10:48:17.950Z,38.40
2023-07-24T10:50:50.702Z,38.00
2023-07-24T10:53:21.962Z,37.70
2023-07-24T10:55:51.548Z,38.20
2023-07-24T10:58:21.203Z,38.30
2023-07-24T11:00:49.385Z,38.50
2023-07-24T11:03:19.573Z,39.20
2023-07-24T11:05:49.131Z,39.60
2023-07-24T11:08:19.509Z,40.00
2023-07-24T11:10:48.911Z,40.10
2023-07-24T11:13:17.892Z,40.20
2023-07-24T11:15:48.537Z,39.60
2023-07-24T11:18:17.167Z,40.10
2023-07-24T11:20:47.965Z,41.30
2023-07-24T11:23:17.488Z,41.70
2023-07-24T11:25:47.161Z,40.80
2023-07-24T11:28:16.974Z,41.00
2023-07-24T11:30:47.081Z,40.60
2023-07-24T11:33:19.807Z,40.40
2023-07-24T11:35:49.227Z,39.80
2023-07-24T11:38:18.869Z,39.20
2023-07-24T11:40:47.073Z,38.80
2023-07-24T11:43:19.617Z,38.70
2023-07-24T11:45:53.479Z,38.50
2023-07-24T11:48:22.586Z,38.20
2023-07-24T11:50:52.868Z,38.60
2023-07-24T11:53:23.611Z,38.70
2023-07-24T11:55:53.111Z,39.00
2023-07-24T11:58:21.948Z,40.00
2023-07-24T12:00:53.683Z,40.50
2023-07-24T12:03:23.168Z,40.70
2023-07-24T12:05:51.937Z,41.30
2023-07-24T12:08:24.474Z,40.80
2023-07-24T12:10:51.690Z,39.20
2023-07-24T12:13:21.900Z,39.50
2023-07-24T12:15:52.162Z,38.90
2023-07-24T12:18:20.388Z,37.70
2023-07-24T12:20:48.813Z,36.70
2023-07-24T12:23:17.361Z,36.90
2023-07-24T12:25:45.532Z,36.00
2023-07-24T12:28:14.409Z,37.00
2023-07-24T12:30:42.900Z,37.00
2023-07-24T12:33:12.450Z,36.40
2023-07-24T12:35:40.574Z,35.50
2023-07-24T12:38:08.700Z,35.40
2023-07-24T12:40:36.936Z,35.10
2023-07-24T12:43:05.044Z,34.50
2023-07-24T12:45:33.960Z,34.50
2023-07-24T12:48:03.018Z,34.40
2023-07-24T12:50:32.832Z,34.20
2023-07-24T12:53:04.138Z,34.50
2023-07-24T12:55:33.353Z,35.40
2023-07-24T12:58:03.040Z,36.40
2023-07-24T13:00:32.826Z,36.90
2023-07-24T13:03:01.199Z,37.10
2023-07-24T13:05:29.455Z,37.00
2023-07-24T13:07:59.662Z,36.60
2023-07-24T13:10:28.005Z,37.50
2023-07-24T13:12:56.346Z,36.70
2023-07-24T13:15:24.544Z,37.20
2023-07-24T13:17:52.842Z,37.40
2023-07-24T13:20:21.078Z,37.50
2023-07-24T13:22:50.078Z,36.80
2023-07-24T13:25:19.584Z,36.50
2023-07-24T13:27:47.663Z,36.70
2023-07-24T13:30:15.683Z,36.60
2023-07-24T13:32:45.308Z,36.40
2023-07-24T13:35:13.817Z,36.10
2023-07-24T13:37:41.954Z,35.90
2023-07-24T13:40:11.447Z,35.40
2023-07-24T13:42:40.939Z,35.20
2023-07-24T13:45:10.599Z,35.10
2023-07-24T13:47:38.999Z,35.30
2023-07-24T13:50:08.659Z,35.60
2023-07-24T13:52:36.903Z,35.80
2023-07-24T13:55:05.461Z,35.90
2023-07-24T13:57:33.779Z,36.20
2023-07-24T14:00:03.226Z,36.30
2023-07-24T14:02:40.438Z,36.40
2023-07-24T14:05:10.146Z,36.70
2023-07-24T14:07:38.337Z,36.80
2023-07-24T14:10:07.804Z,37.00
2023-07-24T14:12:36.040Z,37.50
2023-07-24T14:15:06.331Z,37.70
2023-07-24T14:17:36.308Z,39.20
2023-07-24T14:20:04.843Z,39.00
2023-07-24T14:22:33.004Z,39.40
2023-07-24T14:25:01.474Z,39.90
2023-07-24T14:27:30.093Z,40.20
2023-07-24T14:29:58.465Z,40.50
2023-07-24T14:32:28.218Z,40.50
2023-07-24T14:34:56.369Z,40.90
2023-07-24T14:37:24.691Z,41.30
2023-07-24T14:39:52.993Z,42.10
2023-07-24T14:42:21.433Z,42.60
2023-07-24T14:44:49.751Z,43.00
2023-07-24T14:47:18.184Z,43.00
2023-07-24T14:49:47.703Z,43.00
2023-07-24T14:52:16.028Z,42.90
2023-07-24T14:54:44.143Z,42.20
2023-07-24T14:57:23.656Z,41.80
2023-07-24T14:59:54.295Z,42.10
2023-07-24T15:02:22.392Z,42.30
2023-07-24T15:04:52.167Z,41.80
2023-07-24T15:07:20.323Z,41.40
2023-07-24T15:09:48.468Z,41.40
2023-07-24T15:12:16.663Z,41.40
2023-07-24T15:14:44.937Z,41.40
2023-07-24T15:17:15.810Z,41.30
2023-07-24T15:19:44.058Z,41.30
2023-07-24T15:22:13.785Z,41.00
2023-07-24T15:24:43.240Z,41.10
2023-07-24T15:27:12.133Z,41.30
2023-07-24T15:29:40.530Z,41.70
2023-07-24T15:32:09.779Z,42.10
2023-07-24T15:34:40.166Z,42.80
2023-07-24T15:37:08.506Z,43.10
2023-07-24T15:39:38.413Z,43.20
2023-07-24T15:42:07.124Z,43.00
2023-07-24T15:44:35.322Z,43.00
2023-07-24T15:47:03.640Z,42.90
2023-07-24T15:49:31.963Z,42.60
2023-07-24T15:52:00.401Z,42.30
2023-07-24T15:54:29.178Z,42.10
2023-07-24T15:56:58.786Z,41.60
2023-07-24T15:59:27.761Z,41.40
2023-07-24T16:01:56.380Z,41.10
2023-07-24T16:04:24.748Z,40.90
2023-07-24T16:06:52.932Z,40.90
2023-07-24T16:09:23.407Z,40.80
2023-07-24T16:11:51.827Z,40.90
2023-07-24T16:14:21.528Z,41.00
2023-07-24T16:16:49.743Z,41.20
2023-07-24T16:19:19.796Z,41.30
2023-07-24T16:21:50.610Z,41.40
2023-07-24T16:24:21.255Z,41.60
2023-07-24T16:26:50.645Z,41.60
2023-07-24T16:29:19.388Z,41.90
2023-07-24T16:31:49.150Z,42.10
2023-07-24T16:34:17.386Z,42.10
2023-07-24T16:36:46.364Z,42.20
2023-07-24T16:39:14.975Z,41.90
2023-07-24T16:41:43.545Z,41.60
2023-07-24T16:44:15.263Z,41.70
2023-07-24T16:46:43.848Z,41.80
2023-07-24T16:49:14.476Z,41.60
2023-07-24T16:51:43.269Z,41.70
2023-07-24T16:54:13.137Z,41.80
2023-07-24T16:56:41.933Z,42.00
2023-07-24T16:59:10.051Z,41.90
2023-07-24T17:01:38.162Z,42.00
2023-07-24T17:04:06.770Z,42.40
2023-07-24T17:06:36.523Z,42.50
2023-07-24T17:09:04.827Z,43.20
2023-07-24T17:11:33.424Z,42.60
2023-07-24T17:14:01.938Z,42.60
2023-07-24T17:16:31.019Z,42.60
2023-07-24T17:18:59.390Z,42.60
2023-07-24T17:21:28.976Z,42.50
2023-07-24T17:23:59.052Z,42.40
2023-07-24T17:26:32.107Z,42.50
2023-07-24T17:29:02.958Z,42.30
2023-07-24T17:31:31.572Z,42.70
2023-07-24T17:34:00.340Z,42.10
2023-07-24T17:36:28.518Z,42.10
2023-07-24T17:38:59.856Z,42.20
2023-07-24T17:41:28.630Z,42.10
2023-07-24T17:43:57.373Z,42.10
2023-07-24T17:46:25.419Z,42.00
2023-07-24T17:48:53.541Z,41.90
2023-07-24T17:51:21.702Z,41.90
2023-07-24T17:53:49.961Z,42.10
2023-07-24T17:56:19.897Z,42.10
2023-07-24T17:58:47.923Z,42.30
2023-07-24T18:01:16.065Z,42.40
2023-07-24T18:03:44.446Z,42.40
2023-07-24T18:06:12.593Z,42.50
2023-07-24T18:08:41.075Z,42.50
2023-07-24T18:11:09.375Z,42.60
2023-07-24T18:13:39.389Z,42.60
2023-07-24T18:16:09.985Z,42.70
2023-07-24T18:18:38.043Z,42.70
2023-07-24T18:21:09.037Z,42.70
2023-07-24T18:23:37.731Z,42.70
2023-07-24T18:26:05.867Z,42.80
2023-07-24T18:28:38.264Z,42.80
2023-07-24T18:31:06.918Z,42.90
2023-07-24T18:33:35.607Z,42.80
2023-07-24T18:36:04.002Z,42.90
2023-07-24T18:38:32.419Z,43.00
2023-07-24T18:41:01.240Z,43.00
2023-07-24T18:43:29.352Z,43.20
2023-07-24T18:45:59.239Z,43.10
2023-07-24T18:48:28.254Z,43.30
2023-07-24T18:50:56.557Z,43.10
2023-07-24T18:53:25.815Z,43.10
2023-07-24T18:55:54.462Z,43.20
2023-07-24T18:58:22.777Z,43.20
2023-07-24T19:00:51.197Z,43.80
2023-07-24T19:03:21.083Z,43.50
2023-07-24T19:05:49.645Z,43.70
2023-07-24T19:08:18.454Z,43.60
2023-07-24T19:10:46.903Z,43.70
2023-07-24T19:13:15.166Z,43.80
2023-07-24T19:15:43.257Z,43.90
2023-07-24T19:18:11.843Z,43.90
2023-07-24T19:20:41.825Z,44.00
2023-07-24T19:23:10.196Z,44.10
2023-07-24T19:25:38.944Z,44.10
2023-07-24T19:28:07.021Z,44.10
2023-07-24T19:30:35.311Z,44.20
2023-07-24T19:33:03.668Z,44.30
2023-07-24T19:35:31.807Z,44.60
2023-07-24T19:38:01.701Z,44.70
2023-07-24T19:40:29.874Z,45.10
2023-07-24T19:42:58.285Z,45.10
2023-07-24T19:45:27.473Z,45.20
2023-07-24T19:47:55.883Z,45.40
2023-07-24T19:50:24.465Z,45.50
2023-07-24T19:52:52.930Z,45.70
2023-07-24T19:55:22.872Z,45.90
2023-07-24T19:57:51.770Z,46.10
2023-07-24T20:00:21.170Z,46.10
2023-07-24T20:02:49.580Z,46.30
2023-07-24T20:05:17.917Z,46.50
2023-07-24T20:07:46.154Z,46.60
2023-07-24T20:10:14.676Z,46.70
2023-07-24T20:12:44.054Z,46.80
2023-07-24T20:15:17.211Z,47.00
2023-07-24T20:17:46.226Z,47.10
2023-07-24T20:20:14.970Z,47.00
2023-07-24T20:22:43.283Z,46.90
2023-07-24T20:25:11.490Z,46.90
2023-07-24T20:27:39.721Z,46.80
2023-07-24T20:30:11.091Z,46.80
2023-07-24T20:32:39.267Z,47.00
2023-07-24T20:35:09.058Z,47.10
2023-07-24T20:37:37.755Z,47.20
2023-07-24T20:40:07.314Z,47.20
2023-07-24T20:42:35.721Z,47.20
2023-07-24T20:45:03.859Z,47.20
2023-07-24T20:47:33.756Z,47.30
2023-07-24T20:50:01.826Z,47.50
2023-07-24T20:52:30.362Z,47.60
2023-07-24T20:54:58.938Z,47.90
2023-07-24T20:57:27.070Z,48.20
2023-07-24T20:59:55.200Z,48.20
2023-07-24T21:02:23.576Z,48.30
2023-07-24T21:04:56.576Z,48.50
2023-07-24T21:07:24.676Z,48.70
2023-07-24T21:09:52.994Z,48.80
2023-07-24T21:12:21.347Z,48.80
2023-07-24T21:14:49.618Z,48.90
2023-07-24T21:17:18.275Z,49.00
2023-07-24T21:19:46.602Z,49.00
2023-07-24T21:22:16.945Z,49.10
2023-07-24T21:24:45.007Z,49.30
2023-07-24T21:27:13.277Z,49.40
2023-07-24T21:29:41.866Z,49.40
2023-07-24T21:32:10.188Z,49.50
2023-07-24T21:34:38.331Z,49.60
2023-07-24T21:37:07.034Z,49.70
2023-07-24T21:39:36.801Z,49.70
2023-07-24T21:42:05.323Z,49.80
2023-07-24T21:44:33.474Z,49.90
2023-07-24T21:47:01.895Z,49.90
2023-07-24T21:49:32.404Z,49.90
2023-07-24T21:52:01.355Z,50.00
2023-07-24T21:54:29.506Z,50.10
2023-07-24T21:56:59.266Z,50.10
2023-07-24T21:59:27.333Z,50.30
2023-07-24T22:02:14.015Z,50.30
2023-07-24T22:04:42.498Z,50.20
2023-07-24T22:07:11.233Z,50.20
2023-07-24T22:09:39.323Z,50.30
2023-07-24T22:12:10.080Z,50.40
2023-07-24T22:14:38.167Z,50.50
2023-07-24T22:17:06.914Z,50.30
2023-07-24T22:19:34.973Z,50.30
2023-07-24T22:22:03.867Z,50.30
2023-07-24T22:24:33.846Z,50.30
2023-07-24T22:27:02.132Z,50.20
2023-07-24T22:29:32.176Z,50.20
2023-07-24T22:32:00.231Z,50.40
2023-07-24T22:34:28.370Z,50.30
2023-07-24T22:36:56.499Z,50.30
2023-07-24T22:39:24.949Z,50.50
2023-07-24T22:41:53.317Z,50.40
2023-07-24T22:44:21.785Z,50.50
2023-07-24T22:46:52.371Z,50.50
2023-07-24T22:49:21.198Z,50.60
2023-07-24T22:51:49.242Z,50.60
2023-07-24T22:54:17.723Z,50.70
2023-07-24T22:56:46.065Z,50.70
2023-07-24T22:59:26.095Z,50.80
2023-07-24T23:01:57.202Z,51.20
2023-07-24T23:04:27.380Z,50.90
2023-07-24T23:06:57.060Z,50.90
2023-07-24T23:09:25.448Z,50.90
2023-07-24T23:11:53.951Z,50.90
2023-07-24T23:14:22.262Z,50.90
2023-07-24T23:16:50.699Z,51.00
2023-07-24T23:19:20.764Z,51.00
2023-07-24T23:21:48.926Z,51.20
2023-07-24T23:24:17.430Z,51.20
2023-07-24T23:26:45.686Z,51.20
2023-07-24T23:29:13.836Z,51.20
2023-07-24T23:31:42.131Z,51.60
2023-07-24T23:34:10.240Z,51.30
2023-07-24T23:36:39.842Z,51.40
2023-07-24T23:39:07.992Z,51.50
2023-07-24T23:41:36.412Z,51.90
2023-07-24T23:44:04.909Z,51.50
2023-07-24T23:46:33.655Z,51.60
2023-07-24T23:49:01.986Z,51.50
2023-07-24T23:51:30.366Z,51.60
2023-07-24T23:54:00.094Z,51.70
2023-07-24T23:56:28.288Z,51.80
2023-07-24T23:58:56.331Z,51.70
